Terminal Aerodrome Forecast
Issued by NWS Sterling, VA

Current Version | Previous Version | Text Only | Print | Product List | Glossary Off
Versions: 1 2 3 4 5 6 7 8 9 10 11 12 13 14 15 16 17 18 19 20 21 22 23 24 25 26

000
FTUS41 KLWX 201124
TAFIAD
TAF
KIAD 201124Z 2012/2118 00000KT P6SM VCSH OVC070
     FM201300 VRB03KT P6SM -SHRA OVC060
     FM201500 16005KT 5SM -RA BR OVC030
     FM201700 16005KT 3SM -RA BR OVC008
     FM202000 16005KT 6SM -DZ BR OVC008
     FM210300 VRB03KT 3SM -DZ BR OVC003
     FM210900 00000KT 6SM -DZ BR OVC010=

USA.gov is the U.S. government's official web portal to all federal, state and local government web resources and services.